Flugplatz Salzgitter-Drütte

Für EDVS sind keine METAR/TAF Berichte vorhanden.
Es werden die Flugwettermeldungen vom Flugplatz Braunschweig Wolfsburg in 20 km Entfernung angezeigt.

Bericht für EDVE

vom 25.09. um 19:20 UTC

Wind 5 kt aus 230°

Sichtweite 10 km oder mehr

gute Sicht, keine Wolken < 5000 ft, keine CB, keine Wettererscheinungen (CAVOK)

Temperatur 12.0°C

Taupunkt 4.0°C

Luftfeuchtigkeit 58%

Luftdruck 997 hPa

EDVE 251920Z 23005KT CAVOK 12/04 Q0997

Prognose für EDVE

vom 25.09. um 17:00 UTC

Zwischen 18:00 UTC und 21:00 UTC

variable Windrichtung mit 3 kt

Sichtweite 10 km oder mehr

keine signifikanten Wettererscheinungen

keine Wolken

TAF EDVE 251700Z 2518/2521 VRB03KT CAVOK
Impressum